createdAt,value
2018-01-06T00:00:01.335Z,1.10
2018-01-06T00:02:27.947Z,4.70
2018-01-06T00:04:55.085Z,0.70
2018-01-06T00:07:21.400Z,1.30
2018-01-06T00:09:47.676Z,0.90
2018-01-06T00:12:13.982Z,0.80
2018-01-06T00:14:40.274Z,0.70
2018-01-06T00:17:06.623Z,2.23
2018-01-06T00:19:32.968Z,0.90
2018-01-06T00:21:59.682Z,0.97
2018-01-06T00:24:25.949Z,1.37
2018-01-06T00:26:52.288Z,2.07
2018-01-06T00:29:18.590Z,2.10
2018-01-06T00:31:44.898Z,1.30
2018-01-06T00:34:11.234Z,3.40
2018-01-06T00:36:37.504Z,2.33
2018-01-06T00:39:03.804Z,2.87
2018-01-06T00:41:30.135Z,1.50
2018-01-06T00:43:56.400Z,1.57
2018-01-06T00:46:22.749Z,1.73
2018-01-06T00:48:49.742Z,1.67
2018-01-06T00:51:16.003Z,1.50
2018-01-06T00:53:42.296Z,1.37
2018-01-06T00:56:08.555Z,1.10
2018-01-06T00:58:34.860Z,3.60
2018-01-06T01:01:01.143Z,11.70
2018-01-06T01:03:28.199Z,2.87
2018-01-06T01:05:55.448Z,7.27
2018-01-06T01:08:21.835Z,8.27
2018-01-06T01:10:48.127Z,2.63
2018-01-06T01:13:14.732Z,5.90
2018-01-06T01:15:42.038Z,2.40
2018-01-06T01:18:08.380Z,4.47
2018-01-06T01:20:34.686Z,2.60
2018-01-06T01:23:00.961Z,2.50
2018-01-06T01:25:27.247Z,1.53
2018-01-06T01:27:53.500Z,1.97
2018-01-06T01:30:19.844Z,1.57
2018-01-06T01:32:46.071Z,1.20
2018-01-06T01:35:12.370Z,2.93
2018-01-06T01:37:38.731Z,2.70
2018-01-06T01:40:05.013Z,1.13
2018-01-06T01:42:32.039Z,1.13
2018-01-06T01:44:59.073Z,2.10
2018-01-06T01:47:25.354Z,0.70
2018-01-06T01:49:51.829Z,1.03
2018-01-06T01:52:18.119Z,0.83
2018-01-06T01:54:44.423Z,4.10
2018-01-06T01:57:10.747Z,0.77
2018-01-06T01:59:37.073Z,1.17
2018-01-06T02:02:04.149Z,1.30
2018-01-06T02:04:31.222Z,1.43
2018-01-06T02:06:57.501Z,0.97
2018-01-06T02:09:23.787Z,1.10
2018-01-06T02:11:50.083Z,1.70
2018-01-06T02:14:16.347Z,1.40
2018-01-06T02:16:42.622Z,1.43
2018-01-06T02:19:08.962Z,0.70
2018-01-06T02:21:36.000Z,1.80
2018-01-06T02:24:02.332Z,0.70
2018-01-06T02:26:28.631Z,1.87
2018-01-06T02:28:54.920Z,0.67
2018-01-06T02:31:21.902Z,1.70
2018-01-06T02:33:48.208Z,2.63
2018-01-06T02:36:14.456Z,1.07
2018-01-06T02:38:40.730Z,1.53
2018-01-06T02:41:06.985Z,2.23
2018-01-06T02:43:33.226Z,1.43
2018-01-06T02:45:59.526Z,1.10
2018-01-06T02:48:25.788Z,4.17
2018-01-06T02:50:52.103Z,1.40
2018-01-06T02:53:19.108Z,1.00
2018-01-06T02:55:45.406Z,1.63
2018-01-06T02:58:11.659Z,1.97
2018-01-06T03:00:38.007Z,2.90
2018-01-06T03:03:05.204Z,2.30
2018-01-06T03:05:31.500Z,2.00
2018-01-06T03:07:57.779Z,4.10
2018-01-06T03:10:24.043Z,2.53
2018-01-06T03:12:50.375Z,5.93
2018-01-06T03:15:16.704Z,3.83
2018-01-06T03:17:43.124Z,2.13
2018-01-06T03:20:09.410Z,3.33
2018-01-06T03:22:36.481Z,1.43
2018-01-06T03:25:02.729Z,4.63
2018-01-06T03:27:29.020Z,2.03
2018-01-06T03:29:56.028Z,5.00
2018-01-06T03:32:22.298Z,6.80
2018-01-06T03:34:49.338Z,1.47
2018-01-06T03:37:16.330Z,8.20
2018-01-06T03:39:42.622Z,13.20
2018-01-06T03:42:09.642Z,3.97
2018-01-06T03:44:35.944Z,1.00
2018-01-06T03:47:02.210Z,3.23
2018-01-06T03:49:28.560Z,4.20
2018-01-06T03:51:55.558Z,1.13
2018-01-06T03:54:21.823Z,2.67
2018-01-06T03:56:48.846Z,4.00
2018-01-06T03:59:15.099Z,2.93
2018-01-06T04:01:42.137Z,1.33
2018-01-06T04:04:08.403Z,2.13
2018-01-06T04:06:34.735Z,1.80
2018-01-06T04:09:00.975Z,4.83
2018-01-06T04:11:27.291Z,8.90
2018-01-06T04:13:53.575Z,2.83
2018-01-06T04:16:19.865Z,3.33
2018-01-06T04:18:46.169Z,7.43
2018-01-06T04:21:13.232Z,6.73
2018-01-06T04:23:39.558Z,1.73
2018-01-06T04:26:05.793Z,2.70
2018-01-06T04:28:32.124Z,4.43
2018-01-06T04:30:58.380Z,7.80
2018-01-06T04:33:25.876Z,2.30
2018-01-06T04:35:52.140Z,3.23
2018-01-06T04:38:18.440Z,10.40
2018-01-06T04:40:44.694Z,1.93
2018-01-06T04:43:11.718Z,4.17
2018-01-06T04:45:37.986Z,4.97
2018-01-06T04:48:04.342Z,4.00
2018-01-06T04:50:30.624Z,8.30
2018-01-06T04:52:58.308Z,3.50
2018-01-06T04:55:24.597Z,5.33
2018-01-06T04:57:50.852Z,7.93
2018-01-06T05:00:17.903Z,4.60
2018-01-06T05:02:44.873Z,7.77
2018-01-06T05:05:11.185Z,8.10
2018-01-06T05:07:37.475Z,5.40
2018-01-06T05:10:03.732Z,6.90
2018-01-06T05:12:30.779Z,6.80
2018-01-06T05:14:57.797Z,3.03
2018-01-06T05:17:24.866Z,4.90
2018-01-06T05:19:51.145Z,10.70
2018-01-06T05:22:17.468Z,8.70
2018-01-06T05:24:43.776Z,3.13
2018-01-06T05:27:10.870Z,10.97
2018-01-06T05:29:38.178Z,5.33
2018-01-06T05:32:05.189Z,2.03
2018-01-06T05:34:31.461Z,7.70
2018-01-06T05:36:57.717Z,2.90
2018-01-06T05:39:24.003Z,5.00
2018-01-06T05:41:52.152Z,9.93
2018-01-06T05:44:18.407Z,6.53
2018-01-06T05:46:45.395Z,5.03
2018-01-06T05:49:11.683Z,11.90
2018-01-06T05:51:38.692Z,9.30
2018-01-06T05:54:08.150Z,5.60
2018-01-06T05:56:34.400Z,15.50
2018-01-06T05:59:03.831Z,6.60
2018-01-06T06:01:30.233Z,2.90
2018-01-06T06:03:56.489Z,4.13
2018-01-06T06:06:22.788Z,3.00
2018-01-06T06:08:49.051Z,5.37
2018-01-06T06:11:15.295Z,6.90
2018-01-06T06:13:41.577Z,6.40
2018-01-06T06:16:07.853Z,9.67
2018-01-06T06:18:34.141Z,10.10
2018-01-06T06:21:00.381Z,5.40
2018-01-06T06:23:27.721Z,9.17
2018-01-06T06:25:54.014Z,7.30
2018-01-06T06:28:20.332Z,6.37
2018-01-06T06:30:46.576Z,3.80
2018-01-06T06:33:12.825Z,5.80
2018-01-06T06:35:39.884Z,6.33
2018-01-06T06:38:07.066Z,7.00
2018-01-06T06:40:35.386Z,7.40
2018-01-06T06:43:02.409Z,6.10
2018-01-06T06:45:28.688Z,5.07
2018-01-06T06:47:55.014Z,6.57
2018-01-06T06:50:22.065Z,6.83
2018-01-06T06:52:48.300Z,4.37
2018-01-06T06:55:14.639Z,6.93
2018-01-06T06:57:40.935Z,6.93
2018-01-06T07:00:08.024Z,4.63
2018-01-06T07:02:36.361Z,6.40
2018-01-06T07:05:07.438Z,7.13
2018-01-06T07:07:33.717Z,4.53
2018-01-06T07:09:59.988Z,9.50
2018-01-06T07:12:27.347Z,6.90
2018-01-06T07:14:53.604Z,8.93
2018-01-06T07:17:19.856Z,5.90
2018-01-06T07:19:48.135Z,5.37
2018-01-06T07:22:14.449Z,9.60
2018-01-06T07:24:40.763Z,5.23
2018-01-06T07:27:13.436Z,4.00
2018-01-06T07:29:39.714Z,7.00
2018-01-06T07:32:06.030Z,4.03
2018-01-06T07:34:32.936Z,3.43
2018-01-06T07:36:59.222Z,6.50
2018-01-06T07:39:25.481Z,7.93
2018-01-06T07:41:51.787Z,3.87
2018-01-06T07:44:18.829Z,8.83
2018-01-06T07:46:45.082Z,5.77
2018-01-06T07:49:12.114Z,3.37
2018-01-06T07:51:39.119Z,6.27
2018-01-06T07:54:05.383Z,6.20
2018-01-06T07:56:33.165Z,2.73
2018-01-06T07:59:00.168Z,6.03
2018-01-06T08:01:26.435Z,7.20
2018-01-06T08:03:52.729Z,6.10
2018-01-06T08:06:19.001Z,5.47
2018-01-06T08:08:46.035Z,6.77
2018-01-06T08:11:15.453Z,5.43
2018-01-06T08:13:42.453Z,7.83
2018-01-06T08:16:08.741Z,8.50
2018-01-06T08:18:35.033Z,11.77
2018-01-06T08:21:01.289Z,7.23
2018-01-06T08:23:28.295Z,6.00
2018-01-06T08:25:54.557Z,8.33
2018-01-06T08:28:21.578Z,4.37
2018-01-06T08:30:47.835Z,5.27
2018-01-06T08:33:21.412Z,4.60
2018-01-06T08:35:47.677Z,6.37
2018-01-06T08:38:14.689Z,8.73
2018-01-06T08:40:44.867Z,6.30
2018-01-06T08:43:11.147Z,5.20
2018-01-06T08:45:37.468Z,3.37
2018-01-06T08:48:03.732Z,6.13
2018-01-06T08:50:30.743Z,7.30
2018-01-06T08:52:57.068Z,8.87
2018-01-06T08:55:23.342Z,5.30
2018-01-06T08:57:50.371Z,3.70
2018-01-06T09:00:24.042Z,6.30
2018-01-06T09:02:50.285Z,2.67
2018-01-06T09:05:16.605Z,3.17
2018-01-06T09:07:42.850Z,3.63
2018-01-06T09:10:09.131Z,3.53
2018-01-06T09:12:35.780Z,3.63
2018-01-06T09:15:02.068Z,3.93
2018-01-06T09:17:28.352Z,2.20
2018-01-06T09:23:11.405Z,8.43
2018-01-06T09:25:37.733Z,6.07
2018-01-06T09:28:04.037Z,3.43
2018-01-06T09:30:30.489Z,6.50
2018-01-06T09:32:56.955Z,16.70
2018-01-06T09:35:23.225Z,8.40
2018-01-06T09:37:50.279Z,7.57
2018-01-06T09:40:16.677Z,12.23
2018-01-06T09:45:43.713Z,7.80
2018-01-06T09:48:10.059Z,9.20
2018-01-06T09:50:36.390Z,10.53
2018-01-06T09:53:02.771Z,12.80
2018-01-06T09:55:29.132Z,12.27
2018-01-06T09:57:55.497Z,10.00
2018-01-06T10:00:21.918Z,14.73
2018-01-06T10:02:48.313Z,6.20
2018-01-06T10:05:14.611Z,6.07
2018-01-06T10:07:41.147Z,9.40
2018-01-06T10:10:07.668Z,8.43
2018-01-06T10:12:34.068Z,9.10
2018-01-06T10:15:06.003Z,8.73
2018-01-06T10:17:32.351Z,8.10
2018-01-06T10:19:58.642Z,12.77
2018-01-06T10:22:25.735Z,7.50
2018-01-06T10:24:52.489Z,17.93
2018-01-06T10:27:18.935Z,12.63
2018-01-06T10:29:45.253Z,16.70
2018-01-06T10:32:11.661Z,12.27
2018-01-06T10:35:03.827Z,17.60
2018-01-06T10:37:30.225Z,13.43
2018-01-06T10:39:56.519Z,13.60
2018-01-06T10:42:22.885Z,9.63
2018-01-06T10:44:49.330Z,7.47
2018-01-06T10:47:15.656Z,7.00
2018-01-06T10:49:41.926Z,8.50
2018-01-06T10:52:08.352Z,10.73
2018-01-06T10:54:35.506Z,17.57
2018-01-06T10:57:01.792Z,9.13
2018-01-06T10:59:28.282Z,10.83
2018-01-06T11:02:00.875Z,14.23
2018-01-06T11:04:27.155Z,12.13
2018-01-06T11:06:53.724Z,16.23
2018-01-06T11:09:20.105Z,12.53
2018-01-06T11:11:46.545Z,11.33
2018-01-06T11:14:12.987Z,9.60
2018-01-06T11:16:39.450Z,7.97
2018-01-06T11:19:05.714Z,8.10
2018-01-06T11:21:32.143Z,9.70
2018-01-06T11:23:58.426Z,8.80
2018-01-06T11:26:24.800Z,10.17
2018-01-06T11:28:51.104Z,8.50
2018-01-06T11:31:17.394Z,10.80
2018-01-06T11:33:43.672Z,8.97
2018-01-06T11:36:09.981Z,14.00
2018-01-06T11:38:36.409Z,9.20
2018-01-06T11:41:02.739Z,12.03
2018-01-06T11:43:28.988Z,11.50
2018-01-06T11:45:55.300Z,6.83
2018-01-06T11:48:21.576Z,6.90
2018-01-06T11:50:49.476Z,10.83
2018-01-06T11:53:15.793Z,10.80
2018-01-06T11:55:43.035Z,9.13
2018-01-06T11:58:09.499Z,11.93
2018-01-06T12:00:35.809Z,11.93
2018-01-06T12:03:02.870Z,13.30
2018-01-06T12:05:29.901Z,8.40
2018-01-06T12:07:56.200Z,7.30
2018-01-06T12:10:22.584Z,11.03
2018-01-06T12:12:48.921Z,10.67
2018-01-06T12:15:15.212Z,8.20
2018-01-06T12:17:41.480Z,9.77
2018-01-06T12:20:07.770Z,8.90
2018-01-06T12:22:34.055Z,6.13
2018-01-06T12:25:00.405Z,8.63
2018-01-06T12:27:26.696Z,10.17
2018-01-06T12:29:53.064Z,8.50
2018-01-06T12:32:19.321Z,17.30
2018-01-06T12:34:45.596Z,6.53
2018-01-06T12:37:11.852Z,7.40
2018-01-06T12:39:38.236Z,9.60
2018-01-06T12:42:05.272Z,9.20
2018-01-06T12:44:31.548Z,9.63
2018-01-06T12:46:57.852Z,9.17
2018-01-06T12:49:24.126Z,8.53
2018-01-06T12:51:50.452Z,9.17
2018-01-06T12:54:17.046Z,9.73
2018-01-06T12:56:44.071Z,8.30
2018-01-06T12:59:11.094Z,12.93
2018-01-06T13:01:37.337Z,9.60
2018-01-06T13:04:03.577Z,11.73
2018-01-06T13:06:29.937Z,6.23
2018-01-06T13:08:56.199Z,7.93
2018-01-06T13:11:22.563Z,14.57
2018-01-06T13:13:48.845Z,9.03
2018-01-06T13:16:15.161Z,7.60
2018-01-06T13:18:44.286Z,8.40
2018-01-06T13:21:10.638Z,16.43
2018-01-06T13:23:36.983Z,5.50
2018-01-06T13:26:03.263Z,7.43
2018-01-06T13:28:29.522Z,16.63
2018-01-06T13:30:56.918Z,9.00
2018-01-06T13:33:23.967Z,11.07
2018-01-06T13:35:51.064Z,12.80
2018-01-06T13:38:17.333Z,6.37
2018-01-06T13:40:43.651Z,9.80
2018-01-06T13:43:10.242Z,9.70
2018-01-06T13:45:36.551Z,11.00
2018-01-06T13:48:03.938Z,5.33
2018-01-06T13:50:30.585Z,9.37
2018-01-06T13:52:56.961Z,11.60
2018-01-06T13:55:23.248Z,11.33
2018-01-06T13:57:49.541Z,9.40
2018-01-06T14:00:16.612Z,11.73
2018-01-06T14:02:42.897Z,5.23
2018-01-06T14:05:09.264Z,7.10
2018-01-06T14:07:35.606Z,14.73
2018-01-06T14:10:01.994Z,8.20
2018-01-06T14:12:28.374Z,9.30
2018-01-06T14:14:55.334Z,8.73
2018-01-06T14:17:22.376Z,9.60
2018-01-06T14:19:48.913Z,11.53
2018-01-06T14:22:15.600Z,10.00
2018-01-06T14:24:41.864Z,9.60
2018-01-06T14:27:08.207Z,9.40
2018-01-06T14:29:34.828Z,10.33
2018-01-06T14:32:02.997Z,8.37
2018-01-06T14:34:30.083Z,8.97
2018-01-06T14:36:56.434Z,9.27
2018-01-06T14:39:23.852Z,7.70
2018-01-06T14:41:50.087Z,7.70
2018-01-06T14:44:16.635Z,7.90
2018-01-06T14:46:42.869Z,11.60
2018-01-06T14:49:10.314Z,8.57
2018-01-06T14:51:36.679Z,5.70
2018-01-06T14:54:02.980Z,5.70
2018-01-06T14:56:29.288Z,13.23
2018-01-06T14:58:56.428Z,12.47
2018-01-06T15:01:24.356Z,6.40
2018-01-06T15:03:50.623Z,11.10
2018-01-06T15:06:18.619Z,6.40
2018-01-06T15:08:44.888Z,15.13
2018-01-06T15:11:11.171Z,10.33
2018-01-06T15:13:37.499Z,6.33
2018-01-06T15:16:04.515Z,8.83
2018-01-06T15:18:30.877Z,5.80
2018-01-06T15:20:57.183Z,9.00
2018-01-06T15:23:24.225Z,7.67
2018-01-06T15:25:50.375Z,9.67
2018-01-06T15:28:17.434Z,12.73
2018-01-06T15:30:43.808Z,10.57
2018-01-06T15:33:11.165Z,13.27
2018-01-06T15:35:37.396Z,18.63
2018-01-06T15:38:03.668Z,15.87
2018-01-06T15:40:30.652Z,11.80
2018-01-06T15:42:56.920Z,19.43
2018-01-06T15:45:24.681Z,22.30
2018-01-06T15:47:50.932Z,26.67
2018-01-06T15:50:17.983Z,12.37
2018-01-06T15:52:45.071Z,14.20
2018-01-06T15:55:11.410Z,17.20
2018-01-06T15:57:37.709Z,14.00
2018-01-06T16:00:04.008Z,20.57
2018-01-06T16:02:30.989Z,13.00
2018-01-06T16:04:57.256Z,16.23
2018-01-06T16:07:23.561Z,15.20
2018-01-06T16:09:49.837Z,13.90
2018-01-06T16:12:17.110Z,12.60
2018-01-06T16:14:45.220Z,11.07
2018-01-06T16:17:11.493Z,15.60
2018-01-06T16:19:37.768Z,16.33
2018-01-06T16:22:04.018Z,12.90
2018-01-06T16:24:31.212Z,16.60
2018-01-06T16:26:57.512Z,18.90
2018-01-06T16:29:24.402Z,14.60
2018-01-06T16:31:50.689Z,11.23
2018-01-06T16:34:18.968Z,12.83
2018-01-06T16:36:45.265Z,22.43
2018-01-06T16:39:11.519Z,24.83
2018-01-06T16:41:37.817Z,21.23
2018-01-06T16:44:05.033Z,26.07
2018-01-06T16:46:31.319Z,22.57
2018-01-06T16:48:57.564Z,22.17
2018-01-06T16:51:24.744Z,24.50
2018-01-06T16:53:51.044Z,21.00
2018-01-06T16:56:17.342Z,27.20
2018-01-06T16:58:43.621Z,30.03
2018-01-06T17:01:14.744Z,44.67
2018-01-06T17:03:42.035Z,45.40
2018-01-06T17:06:08.339Z,49.90
2018-01-06T17:08:34.633Z,39.73
2018-01-06T17:11:00.911Z,36.07
2018-01-06T17:13:27.231Z,30.80
2018-01-06T17:15:54.045Z,41.23
2018-01-06T17:18:20.395Z,36.67
2018-01-06T17:20:47.167Z,36.27
2018-01-06T17:23:14.199Z,33.93
2018-01-06T17:25:40.509Z,34.23
2018-01-06T17:28:06.850Z,41.43
2018-01-06T17:30:36.072Z,29.40
2018-01-06T17:33:02.420Z,28.73
2018-01-06T17:35:28.721Z,29.13
2018-01-06T17:37:55.538Z,29.77
2018-01-06T17:40:21.894Z,35.93
2018-01-06T17:42:48.916Z,27.17
2018-01-06T17:45:20.959Z,28.80
2018-01-06T17:47:48.133Z,29.23
2018-01-06T17:50:14.444Z,27.50
2018-01-06T17:52:40.758Z,23.67
2018-01-06T17:55:07.809Z,21.70
2018-01-06T17:57:34.894Z,22.80
2018-01-06T18:00:01.366Z,19.53
2018-01-06T18:02:27.671Z,29.43
2018-01-06T18:04:53.984Z,28.07
2018-01-06T18:07:20.277Z,24.17
2018-01-06T18:09:47.278Z,25.00
2018-01-06T18:12:13.553Z,18.30
2018-01-06T18:14:40.846Z,27.00
2018-01-06T18:17:07.165Z,23.00
2018-01-06T18:19:33.455Z,22.87
2018-01-06T18:22:00.911Z,27.83
2018-01-06T18:24:27.359Z,26.53
2018-01-06T18:26:53.648Z,23.53
2018-01-06T18:29:19.969Z,23.00
2018-01-06T18:31:46.228Z,21.47
2018-01-06T18:34:15.438Z,25.23
2018-01-06T18:36:42.630Z,16.53
2018-01-06T18:39:09.065Z,21.10
2018-01-06T18:41:35.462Z,24.50
2018-01-06T18:44:01.724Z,29.30
2018-01-06T18:46:28.019Z,23.47
2018-01-06T18:48:55.602Z,21.80
2018-01-06T18:51:21.888Z,27.50
2018-01-06T18:53:48.389Z,23.27
2018-01-06T18:56:14.979Z,29.70
2018-01-06T18:58:42.083Z,32.00
2018-01-06T19:01:08.481Z,49.40
2018-01-06T19:03:35.519Z,32.27
2018-01-06T19:06:02.533Z,29.20
2018-01-06T19:08:28.799Z,25.70
2018-01-06T19:10:55.075Z,36.33
2018-01-06T19:13:21.643Z,34.80
2018-01-06T19:15:47.905Z,34.60
2018-01-06T19:18:15.079Z,34.13
2018-01-06T19:20:41.410Z,37.13
2018-01-06T19:23:07.689Z,38.20
2018-01-06T19:25:34.109Z,37.47
2018-01-06T19:28:01.061Z,34.47
2018-01-06T19:30:27.400Z,30.27
2018-01-06T19:32:54.057Z,24.63
2018-01-06T19:35:21.105Z,33.97
2018-01-06T19:37:47.572Z,24.47
2018-01-06T19:40:14.439Z,25.63
2018-01-06T19:42:40.813Z,24.20
2018-01-06T19:45:07.911Z,26.33
2018-01-06T19:47:34.305Z,28.07
2018-01-06T19:56:47.633Z,22.53
2018-01-06T19:59:14.062Z,25.90
2018-01-06T20:01:40.366Z,26.10
2018-01-06T20:04:06.671Z,26.10
2018-01-06T20:06:33.647Z,23.70
2018-01-06T20:08:59.985Z,23.33
2018-01-06T20:11:26.269Z,24.73
2018-01-06T20:13:52.582Z,29.87
2018-01-06T20:16:19.069Z,27.93
2018-01-06T20:18:45.361Z,29.30
2018-01-06T20:21:12.091Z,31.70
2018-01-06T20:23:38.429Z,35.23
2018-01-06T20:26:04.867Z,38.00
2018-01-06T20:28:31.234Z,33.83
2018-01-06T20:30:57.592Z,29.07
2018-01-06T20:33:24.135Z,33.37
2018-01-06T20:35:50.405Z,28.80
2018-01-06T20:38:16.704Z,31.87
2018-01-06T20:40:43.182Z,35.43
2018-01-06T20:43:10.244Z,25.93
2018-01-06T20:45:36.518Z,31.90
2018-01-06T20:48:03.094Z,29.43
2018-01-06T20:50:29.538Z,37.13
2018-01-06T20:52:56.801Z,29.30
2018-01-06T20:55:23.261Z,26.43
2018-01-06T20:57:49.641Z,24.53
2018-01-06T21:00:16.799Z,26.13
2018-01-06T21:02:43.887Z,33.70
2018-01-06T21:05:10.197Z,30.63
2018-01-06T21:07:38.889Z,23.67
2018-01-06T21:10:05.238Z,31.43
2018-01-06T21:12:31.618Z,27.50
2018-01-06T21:14:58.008Z,29.10
2018-01-06T21:17:24.315Z,26.30
2018-01-06T21:19:53.397Z,27.97
2018-01-06T21:22:20.603Z,35.73
2018-01-06T21:24:46.923Z,30.70
2018-01-06T21:27:13.240Z,26.70
2018-01-06T21:29:39.706Z,29.40
2018-01-06T21:32:06.000Z,28.20
2018-01-06T21:34:32.707Z,26.60
2018-01-06T21:37:00.385Z,35.10
2018-01-06T21:39:26.697Z,29.90
2018-01-06T21:41:53.713Z,30.87
2018-01-06T21:44:19.995Z,25.10
2018-01-06T21:46:46.282Z,34.23
2018-01-06T21:49:14.607Z,36.07
2018-01-06T21:51:40.909Z,37.30
2018-01-06T21:54:09.920Z,35.23
2018-01-06T21:56:36.580Z,34.37
2018-01-06T21:59:02.976Z,52.40
2018-01-06T22:01:30.018Z,41.03
2018-01-06T22:03:57.108Z,43.40
2018-01-06T22:06:23.433Z,36.30
2018-01-06T22:08:49.872Z,40.50
2018-01-06T22:11:16.298Z,50.00
2018-01-06T22:13:42.576Z,35.03
2018-01-06T22:16:08.996Z,37.37
2018-01-06T22:18:35.291Z,33.40
2018-01-06T22:21:01.587Z,36.23
2018-01-06T22:23:28.985Z,26.77
2018-01-06T22:25:56.521Z,26.27
2018-01-06T22:28:23.546Z,32.97
2018-01-06T22:30:49.938Z,28.57
2018-01-06T22:33:16.255Z,26.20
2018-01-06T22:35:42.538Z,36.60
2018-01-06T22:38:08.780Z,39.23
2018-01-06T22:40:35.872Z,32.33
2018-01-06T22:43:02.700Z,32.67
2018-01-06T22:45:29.012Z,45.33
2018-01-06T22:47:56.708Z,48.43
2018-01-06T22:50:22.998Z,54.30
2018-01-06T22:52:50.074Z,43.93
2018-01-06T22:55:16.525Z,35.00
2018-01-06T22:57:42.836Z,42.67
2018-01-06T23:00:09.196Z,37.57
2018-01-06T23:02:35.443Z,47.50
2018-01-06T23:05:01.838Z,23.07
2018-01-06T23:07:28.084Z,23.60
2018-01-06T23:09:54.366Z,38.93
2018-01-06T23:12:21.400Z,21.67
2018-01-06T23:14:49.527Z,18.33
2018-01-06T23:17:15.801Z,22.90
2018-01-06T23:19:42.205Z,18.10
2018-01-06T23:22:08.478Z,20.80
2018-01-06T23:24:35.588Z,18.27
2018-01-06T23:27:01.834Z,18.73
2018-01-06T23:29:28.384Z,20.60
2018-01-06T23:31:54.675Z,15.20
2018-01-06T23:34:21.812Z,14.17
2018-01-06T23:36:48.410Z,15.10
2018-01-06T23:39:15.722Z,18.47
2018-01-06T23:41:41.956Z,13.10
2018-01-06T23:44:08.463Z,16.37
2018-01-06T23:46:34.715Z,22.13
2018-01-06T23:49:01.033Z,16.67
2018-01-06T23:51:27.297Z,25.17
2018-01-06T23:53:53.541Z,14.63
2018-01-06T23:56:19.879Z,18.83
2018-01-06T23:58:47.771Z,16.77
